MYGF METAR and TAF weather

Enter ICAO airport designator
Station Type Date Time Source
MYGF METAR 2021/04/13 07:00 UTC NOAA

MYGF 130700Z AUTO 02008KT //// R06///// // NCD 22/15 A2994


Station Type Date Time Source
MYGF Decoded METAR 2021/04/13 07:00 UTC NOAA

Freeport, Grand Bahama, Bahamas, The (MYGF) 26-33N 078-42W 11M
Apr 13, 2021 - 03:00 AM EDT / 2021.04.13 0700 UTC
Wind: from the NNE (020 degrees) at 9 MPH (8 KT):0
Temperature: 71 F (22 C)
Dew Point: 59 F (15 C)
Relative Humidity: 64%
Pressure (altimeter): 29.94 in. Hg (1013 hPa)
ob: MYGF 130700Z AUTO 02008KT //// R06///// // NCD 22/15 A2994
cycle: 7

Station Type Date Time Source
MYGF TAF 2021/04/13 06:36 UTC NOAA

TAF MYGF 130500Z 1306/1406 03010KT 9999 FEW020
BECMG 1312/1314 04005KT 9999 SCT035

Example: see airport list